Hawarden, United Kingdom

2:44 AM BST on August 30, 2015 (GMT +0100)
Broughton, Flintshire | | Change Station
CLOSE
Current Station
Personal Weather Station
Location: Broughton, WALES
Elevation: 82 ft
Nearby Weather Stations

Elev 82 ft 53.16 °N, 2.99 °W | Updated 40 seconds ago

Clear
Clear
54.1 °F
Feels Like 54.1 °F
N
2.0
Wind Variable Wind from North
Gusts 3.0 mph

Today
High -- | Low -- °F
--% Chance of Precip.
Yesterday
High -- | Low -- °F
Precip. -- in
6:17 AM 8:06 PM
Full, 100% visible
Pressure 30.09 in
Visibility -9999.0 miles
Clouds
Dew Point 54 °F
Humidity 99%
Rainfall 0.00 in
Snow Depth Not available.
UV Not available.
Pollen Not available.
Air Quality Not available.
Flu Activity Not available.
METAR EGGP 300120Z 19005KT CAVOK 14/12 Q1019
Pressure 30.09 in
Visibility -9999.0 miles
Clouds
Dew Point 54 °F
Humidity 99%
Rainfall 0.00 in
Snow Depth Not available.
UV Not available.
Pollen Not available.
Air Quality Not available.
Flu Activity Not available.
METAR EGGP 300120Z 19005KT CAVOK 14/12 Q1019

10-Day Weather Forecast

×

Almanac

Astronomy

Aug. 30, 2015 Rise Set
Actual Time
Civil Twilight
Nautical Twilight
Astronomical Twilight
Moon
Length of Visible Light
Length of Day
Tomorrow will be .
, % of the Moon is Illuminated

Today's Extremes

Country Highs Country Lows

Community

WunderPhotos

Upload Photos

1,850,826 photos uploaded!

WunderBlogs® & News

Nearby

Air Quality

  Air Quality AQ Index Pollutant
Not available.

Snow Depth

Station Depth Elevation

Earthquake Activity

City Distance Mag. Time & Date
Minimum magnitude displayed is 2.5.

Coastal Water Temperatures

Place Temperature

Stations

Nearby Weather Stations

Station Location Temp. Windchill Dew Point Humidity Wind Precip. Elev Updated Type